Time;durP1;ratioP1;P1;durP2;ratioP2;P2;SDS_P1;SDS_P2;PMS_P1;PMS_P2;Temp;Humidity;BMP_temperature;BMP_pressure;BME280_temperature;BME280_humidity;BME280_pressure;Samples;Min_cycle;Max_cycle;Signal;HPM_P1;HPM_P2
2023/01/22 00:00:57;;;;;;;26.27;11.83;;;-0.20;99.90;;;;;;5014359;28;20498;-67
2023/01/22 00:03:23;;;;;;;24.90;12.90;;;-0.20;99.90;;;;;;5022947;28;21204;-67
2023/01/22 00:05:51;;;;;;;23.67;12.33;;;-0.20;99.90;;;;;;5018667;28;20505;-67
2023/01/22 00:08:18;;;;;;;24.70;11.90;;;-0.10;99.90;;;;;;5016966;28;20493;-67
2023/01/22 00:10:50;;;;;;;32.77;12.73;;;-0.20;99.90;;;;;;5014960;28;20475;-67
2023/01/22 00:13:16;;;;;;;27.70;12.43;;;-0.20;99.90;;;;;;5016298;28;20459;-66
2023/01/22 00:15:43;;;;;;;24.57;13.50;;;-0.20;99.90;;;;;;5015799;28;20493;-67
2023/01/22 00:18:10;;;;;;;27.40;12.83;;;-0.20;99.90;;;;;;5013843;28;20450;-67
2023/01/22 00:20:37;;;;;;;24.00;12.47;;;-0.10;99.90;;;;;;5024975;28;21075;-66
2023/01/22 00:23:03;;;;;;;27.57;12.53;;;-0.10;99.90;;;;;;5017240;28;20502;-66
2023/01/22 00:25:30;;;;;;;24.57;11.87;;;-0.10;99.90;;;;;;5020718;28;20525;-67
2023/01/22 00:27:58;;;;;;;27.07;12.53;;;-0.10;99.90;;;;;;5014032;28;20916;-67
2023/01/22 00:30:24;;;;;;;26.87;12.03;;;-0.10;99.90;;;;;;5021485;28;20533;-67
2023/01/22 00:32:51;;;;;;;28.63;12.00;;;-0.10;99.90;;;;;;5020474;28;20493;-67
2023/01/22 00:35:18;;;;;;;21.07;11.70;;;-0.10;99.90;;;;;;5019625;28;20459;-67
2023/01/22 00:37:47;;;;;;;20.63;11.60;;;0.00;99.90;;;;;;5024779;28;20866;-67
2023/01/22 00:40:14;;;;;;;24.33;11.47;;;-0.10;99.90;;;;;;5022649;28;20458;-67
2023/01/22 00:42:40;;;;;;;21.03;11.57;;;-0.10;99.90;;;;;;5021411;28;20529;-67
2023/01/22 00:45:10;;;;;;;23.10;10.40;;;0.00;99.90;;;;;;5025224;28;20472;-66
2023/01/22 00:47:36;;;;;;;21.73;11.93;;;-0.10;99.90;;;;;;5021663;28;20455;-66
2023/01/22 00:50:03;;;;;;;22.70;12.17;;;-0.10;99.90;;;;;;5021129;28;20505;-67
2023/01/22 00:52:30;;;;;;;24.97;11.77;;;-0.10;99.90;;;;;;5017765;28;20846;-66
2023/01/22 00:54:56;;;;;;;22.33;11.00;;;-0.10;99.90;;;;;;5033926;28;20476;-74
2023/01/22 00:57:23;;;;;;;19.43;10.80;;;-0.10;99.90;;;;;;5014036;28;20459;-66
2023/01/22 00:59:51;;;;;;;24.07;10.53;;;-0.10;99.90;;;;;;5016868;28;20511;-73
2023/01/22 01:02:19;;;;;;;23.27;11.70;;;-0.10;99.90;;;;;;5028126;28;20497;-72
2023/01/22 01:04:45;;;;;;;22.40;12.23;;;-0.10;99.90;;;;;;5028562;28;20871;-72
2023/01/22 01:07:12;;;;;;;21.17;11.03;;;-0.10;99.90;;;;;;5028790;28;21008;-72
2023/01/22 01:09:38;;;;;;;25.20;10.53;;;-0.10;99.90;;;;;;5028862;28;20454;-72
2023/01/22 01:12:07;;;;;;;19.50;10.47;;;-0.10;99.90;;;;;;5029210;28;21061;-72
2023/01/22 01:14:34;;;;;;;19.30;11.03;;;-0.10;99.90;;;;;;5030128;28;20466;-68
2023/01/22 01:17:01;;;;;;;19.13;10.00;;;-0.10;99.90;;;;;;5021907;28;20453;-67
2023/01/22 01:19:29;;;;;;;19.47;10.87;;;-0.10;99.90;;;;;;5013099;28;20462;-68
2023/01/22 01:21:55;;;;;;;20.90;10.33;;;-0.10;99.90;;;;;;5012252;28;20541;-68
2023/01/22 01:24:22;;;;;;;17.77;10.37;;;-0.10;99.90;;;;;;5017891;28;20461;-67
2023/01/22 01:26:48;;;;;;;16.53;9.47;;;0.00;99.90;;;;;;5014168;28;20459;-68
2023/01/22 01:29:15;;;;;;;14.80;8.97;;;0.00;99.90;;;;;;5024515;28;20454;-67
2023/01/22 01:31:42;;;;;;;23.47;9.93;;;0.00;99.90;;;;;;5022674;28;20471;-67
2023/01/22 01:34:08;;;;;;;15.73;9.60;;;0.00;99.90;;;;;;5026293;28;20485;-66
2023/01/22 01:36:36;;;;;;;16.60;9.47;;;0.00;99.90;;;;;;5025725;28;20959;-67
2023/01/22 01:39:03;;;;;;;18.50;9.33;;;0.00;99.90;;;;;;5021856;28;20506;-66
2023/01/22 01:41:30;;;;;;;15.27;8.53;;;0.00;99.90;;;;;;5018710;28;20489;-67
2023/01/22 01:44:10;;;;;;;16.90;8.73;;;0.00;99.90;;;;;;5020036;28;20482;-67
2023/01/22 01:46:42;;;;;;;19.30;9.07;;;0.00;99.90;;;;;;5022122;28;20957;-67
2023/01/22 01:49:17;;;;;;;15.40;9.10;;;0.00;99.90;;;;;;5025056;28;20484;-67
2023/01/22 01:51:46;;;;;;;15.87;9.60;;;0.00;99.90;;;;;;5018866;28;20466;-66
2023/01/22 01:54:14;;;;;;;17.50;9.43;;;0.00;99.90;;;;;;5022187;28;20946;-67
2023/01/22 01:56:48;;;;;;;14.30;8.73;;;0.00;99.90;;;;;;5023146;28;20454;-67
2023/01/22 01:59:17;;;;;;;16.63;8.50;;;0.00;99.90;;;;;;5025924;28;20450;-67
2023/01/22 02:01:47;;;;;;;16.17;9.20;;;0.00;99.90;;;;;;5023641;28;20487;-67
2023/01/22 02:04:14;;;;;;;10.93;7.90;;;0.10;99.90;;;;;;5018316;28;20455;-67
2023/01/22 02:06:40;;;;;;;14.83;8.27;;;0.00;99.90;;;;;;5017729;28;20900;-66
2023/01/22 02:09:08;;;;;;;15.77;8.17;;;0.10;99.90;;;;;;5029249;28;20476;-66
2023/01/22 02:11:36;;;;;;;12.13;7.10;;;0.10;99.90;;;;;;5022501;28;20466;-67
2023/01/22 02:14:05;;;;;;;15.90;8.30;;;0.10;99.90;;;;;;5022845;28;20512;-67
2023/01/22 02:16:32;;;;;;;12.93;7.47;;;0.10;99.90;;;;;;5014785;28;20451;-67
2023/01/22 02:18:58;;;;;;;11.13;7.00;;;0.10;99.90;;;;;;5018019;28;20512;-67
2023/01/22 02:21:31;;;;;;;13.10;7.50;;;0.10;99.90;;;;;;5025649;28;20493;-67
2023/01/22 02:23:58;;;;;;;12.03;7.63;;;0.10;99.90;;;;;;5024068;28;20515;-67
2023/01/22 02:26:25;;;;;;;11.23;7.50;;;0.10;99.90;;;;;;5017544;28;20458;-67
2023/01/22 02:28:52;;;;;;;13.47;7.13;;;0.20;99.90;;;;;;5012686;28;20508;-66
2023/01/22 02:31:18;;;;;;;10.30;7.40;;;0.20;99.90;;;;;;5025997;28;20532;-67
2023/01/22 02:33:45;;;;;;;11.40;7.33;;;0.10;99.90;;;;;;5024849;28;20449;-67
2023/01/22 02:36:12;;;;;;;11.97;7.50;;;0.20;99.90;;;;;;5021249;28;20454;-66
2023/01/22 02:38:40;;;;;;;10.37;7.47;;;0.10;99.90;;;;;;5015120;28;20455;-67
2023/01/22 02:41:07;;;;;;;14.03;7.50;;;0.20;99.90;;;;;;5020163;28;20971;-67
2023/01/22 02:43:33;;;;;;;9.77;6.90;;;0.20;99.90;;;;;;5025476;28;20486;-67
2023/01/22 02:46:00;;;;;;;9.70;6.30;;;0.20;99.90;;;;;;5026557;28;20511;-67
2023/01/22 02:48:27;;;;;;;9.57;6.50;;;0.20;99.90;;;;;;5021823;28;20536;-66
2023/01/22 02:50:53;;;;;;;8.80;6.20;;;0.20;99.90;;;;;;5025775;28;20474;-66
2023/01/22 02:53:20;;;;;;;11.23;7.00;;;0.20;99.90;;;;;;5020561;28;20528;-67
2023/01/22 02:55:48;;;;;;;12.80;6.40;;;0.20;99.90;;;;;;5026884;28;20511;-67
2023/01/22 02:58:16;;;;;;;9.50;6.97;;;0.20;99.90;;;;;;5021867;28;20450;-67
2023/01/22 03:00:42;;;;;;;9.90;6.90;;;0.20;99.90;;;;;;5015748;28;20486;-67
2023/01/22 03:03:14;;;;;;;9.60;6.30;;;0.20;99.90;;;;;;5015178;28;20493;-67
2023/01/22 03:05:44;;;;;;;11.80;6.90;;;0.20;99.90;;;;;;5020667;28;20482;-67
2023/01/22 03:08:11;;;;;;;9.17;6.40;;;0.20;99.90;;;;;;5025713;28;20457;-67
2023/01/22 03:10:37;;;;;;;9.80;6.07;;;0.20;99.90;;;;;;5022621;28;20474;-67
2023/01/22 03:21:19;;;;;;;9.50;6.83;;;0.30;99.90;;;;;;5021703;28;20527;-67
2023/01/22 03:23:47;;;;;;;14.33;8.00;;;0.20;99.90;;;;;;5016248;28;20461;-67
2023/01/22 03:26:14;;;;;;;9.67;6.30;;;0.20;99.90;;;;;;5013096;28;20458;-67
2023/01/22 03:28:44;;;;;;;8.20;6.10;;;0.20;99.90;;;;;;5028438;28;20466;-66
2023/01/22 03:31:11;;;;;;;9.30;6.50;;;0.30;99.90;;;;;;5026526;28;20482;-66
2023/01/22 03:33:38;;;;;;;9.20;6.47;;;0.30;99.90;;;;;;5015770;28;20954;-67
2023/01/22 03:36:07;;;;;;;9.93;6.57;;;0.20;99.90;;;;;;5018392;28;20450;-67
2023/01/22 03:38:33;;;;;;;8.77;5.90;;;0.30;99.90;;;;;;5019045;28;20967;-66
2023/01/22 03:41:05;;;;;;;9.07;5.90;;;0.30;99.90;;;;;;5028079;28;21002;-67
2023/01/22 03:43:33;;;;;;;9.33;6.20;;;0.30;99.90;;;;;;5024702;28;20449;-67
2023/01/22 03:46:03;;;;;;;10.73;5.50;;;0.30;99.90;;;;;;5024708;28;20470;-67
2023/01/22 03:48:29;;;;;;;8.00;5.27;;;0.30;99.90;;;;;;5016022;28;20454;-67
2023/01/22 03:50:56;;;;;;;6.13;5.00;;;0.30;99.90;;;;;;5031656;28;21060;-66
2023/01/22 03:53:22;;;;;;;6.80;5.53;;;0.30;99.90;;;;;;5027276;28;20453;-66
2023/01/22 03:55:57;;;;;;;8.27;5.83;;;0.30;99.90;;;;;;5022652;28;20455;-66
2023/01/22 03:58:23;;;;;;;8.13;6.00;;;0.40;99.90;;;;;;5017002;28;20464;-67
2023/01/22 04:00:50;;;;;;;6.77;5.30;;;0.40;99.90;;;;;;5020298;28;20474;-67
2023/01/22 04:03:18;;;;;;;8.40;5.70;;;0.50;99.90;;;;;;5029517;28;20489;-66
2023/01/22 04:05:44;;;;;;;5.73;5.13;;;0.40;99.90;;;;;;5025909;28;20982;-67
2023/01/22 04:08:11;;;;;;;6.37;5.73;;;0.40;99.90;;;;;;5018773;28;20454;-66
2023/01/22 04:10:38;;;;;;;8.23;5.63;;;0.40;99.90;;;;;;5016015;28;20520;-66
2023/01/22 04:13:04;;;;;;;7.60;5.70;;;0.40;99.90;;;;;;5027353;28;20861;-67
2023/01/22 04:15:31;;;;;;;7.73;5.70;;;0.40;99.90;;;;;;5026490;28;20508;-67
2023/01/22 04:17:57;;;;;;;8.87;6.40;;;0.40;99.90;;;;;;5022270;28;20959;-66
2023/01/22 04:20:25;;;;;;;6.10;5.07;;;0.40;99.90;;;;;;5020756;28;20466;-66
2023/01/22 04:22:52;;;;;;;6.23;4.97;;;0.40;99.90;;;;;;5024995;28;20489;-67
2023/01/22 04:25:19;;;;;;;6.57;5.10;;;0.40;99.90;;;;;;5029782;28;20661;-67
2023/01/22 04:27:45;;;;;;;6.77;5.13;;;0.40;99.90;;;;;;5024343;28;20993;-66
2023/01/22 04:30:12;;;;;;;6.80;6.10;;;0.40;99.90;;;;;;5025907;28;20458;-66
2023/01/22 04:32:39;;;;;;;9.43;6.07;;;0.40;99.90;;;;;;5021947;28;20528;-66
2023/01/22 04:35:06;;;;;;;7.40;5.53;;;0.40;99.90;;;;;;5027509;28;20450;-66
2023/01/22 04:37:34;;;;;;;8.50;6.07;;;0.40;99.90;;;;;;5020259;28;20484;-66
2023/01/22 04:40:01;;;;;;;9.10;5.90;;;0.40;99.90;;;;;;5025580;28;20459;-66
2023/01/22 04:42:28;;;;;;;8.70;5.80;;;0.40;99.90;;;;;;5022974;28;20477;-66
2023/01/22 04:44:55;;;;;;;7.30;5.80;;;0.40;99.90;;;;;;5019285;28;20486;-66
2023/01/22 04:47:21;;;;;;;7.30;5.67;;;0.40;99.90;;;;;;5030490;28;20484;-67
2023/01/22 04:49:48;;;;;;;8.20;5.90;;;0.40;99.90;;;;;;5026290;28;20450;-66
2023/01/22 04:52:14;;;;;;;8.73;6.50;;;0.40;99.90;;;;;;5023216;28;20478;-66
2023/01/22 04:54:42;;;;;;;9.33;6.40;;;0.50;99.90;;;;;;5017010;28;20459;-67
2023/01/22 04:57:09;;;;;;;9.23;6.07;;;0.50;99.90;;;;;;5026488;28;20450;-66
2023/01/22 04:59:36;;;;;;;11.70;5.70;;;0.50;99.90;;;;;;5027656;28;20462;-66
2023/01/22 05:02:03;;;;;;;5.90;5.17;;;0.50;99.90;;;;;;5022909;28;20909;-66
2023/01/22 05:04:30;;;;;;;6.73;5.60;;;0.50;99.90;;;;;;5022211;28;20516;-67
2023/01/22 05:06:56;;;;;;;8.93;5.90;;;0.50;99.90;;;;;;5017490;28;20462;-66
2023/01/22 05:09:24;;;;;;;8.10;6.20;;;0.50;99.90;;;;;;5020366;28;20501;-66
2023/01/22 05:11:52;;;;;;;7.43;5.63;;;0.50;99.90;;;;;;5028597;28;20982;-66
2023/01/22 05:14:19;;;;;;;8.63;5.87;;;0.50;99.90;;;;;;5024859;28;20976;-66
2023/01/22 05:16:45;;;;;;;8.00;6.07;;;0.50;99.90;;;;;;5018785;28;20450;-66
2023/01/22 05:19:12;;;;;;;8.17;6.20;;;0.50;99.90;;;;;;5027685;28;20837;-67
2023/01/22 05:21:39;;;;;;;6.73;5.93;;;0.50;99.90;;;;;;5021974;28;20908;-65
2023/01/22 05:24:06;;;;;;;8.23;6.83;;;0.50;99.90;;;;;;5030345;28;20462;-66
2023/01/22 05:26:33;;;;;;;10.53;7.27;;;0.50;99.90;;;;;;5026568;28;20482;-66
2023/01/22 05:29:01;;;;;;;8.47;6.50;;;0.50;99.90;;;;;;5022903;28;20454;-66
2023/01/22 05:31:27;;;;;;;9.70;6.20;;;0.50;99.90;;;;;;5021027;28;20985;-66
2023/01/22 05:33:54;;;;;;;9.13;7.30;;;0.50;99.90;;;;;;5025459;28;20496;-66
2023/01/22 05:36:20;;;;;;;10.00;6.00;;;0.50;99.90;;;;;;5026389;28;20500;-66
2023/01/22 05:38:47;;;;;;;7.67;6.37;;;0.50;99.90;;;;;;5024206;28;20459;-66
2023/01/22 05:41:14;;;;;;;9.10;6.40;;;0.50;99.90;;;;;;5023305;28;20548;-66
2023/01/22 05:43:40;;;;;;;6.93;5.97;;;0.50;99.90;;;;;;5023688;28;20482;-66
2023/01/22 05:46:08;;;;;;;10.67;6.50;;;0.50;99.90;;;;;;5028930;28;20450;-66
2023/01/22 05:48:35;;;;;;;8.83;6.90;;;0.50;99.90;;;;;;5027032;28;21016;-66
2023/01/22 05:51:03;;;;;;;8.70;6.33;;;0.50;99.90;;;;;;5018718;28;20479;-66
2023/01/22 05:53:29;;;;;;;9.40;6.70;;;0.50;99.90;;;;;;5017971;28;20534;-66
2023/01/22 05:56:01;;;;;;;7.40;6.20;;;0.50;99.90;;;;;;5023813;28;20457;-66
2023/01/22 05:58:28;;;;;;;7.70;6.30;;;0.50;99.90;;;;;;5022723;28;20459;-66
2023/01/22 06:00:54;;;;;;;7.93;5.80;;;0.50;99.90;;;;;;5025417;28;20891;-65
2023/01/22 06:03:22;;;;;;;7.50;6.37;;;0.50;99.90;;;;;;5019547;28;20494;-66
2023/01/22 06:05:57;;;;;;;9.30;6.90;;;0.50;99.90;;;;;;5013130;28;20459;-66
2023/01/22 06:08:23;;;;;;;8.30;6.73;;;0.50;99.90;;;;;;5026838;28;20456;-66
2023/01/22 06:10:50;;;;;;;8.27;6.57;;;0.50;99.90;;;;;;5023682;28;20479;-66
2023/01/22 06:13:17;;;;;;;6.90;6.20;;;0.50;99.90;;;;;;5021686;28;20450;-67
2023/01/22 06:15:43;;;;;;;8.53;6.27;;;0.60;99.90;;;;;;5016195;28;20458;-66
2023/01/22 06:18:10;;;;;;;7.73;5.70;;;0.60;99.90;;;;;;5018525;28;20454;-66
2023/01/22 06:20:38;;;;;;;9.67;6.50;;;0.50;99.90;;;;;;5026829;28;20465;-66
2023/01/22 06:23:06;;;;;;;8.90;6.17;;;0.60;99.90;;;;;;5018748;28;20490;-66
2023/01/22 06:25:32;;;;;;;7.87;5.73;;;0.60;99.90;;;;;;5019469;28;20512;-66
2023/01/22 06:27:59;;;;;;;10.07;6.30;;;0.50;99.90;;;;;;5017816;28;20535;-66
2023/01/22 06:30:26;;;;;;;9.70;6.40;;;0.60;99.90;;;;;;5021460;28;20545;-66
2023/01/22 06:32:53;;;;;;;8.43;6.70;;;0.60;99.90;;;;;;5020896;28;20482;-66
2023/01/22 06:35:19;;;;;;;8.20;6.83;;;0.60;99.90;;;;;;5022512;28;20454;-66
2023/01/22 06:37:47;;;;;;;8.73;6.30;;;0.60;99.90;;;;;;5023570;28;20870;-66
2023/01/22 06:40:14;;;;;;;7.63;6.33;;;0.60;99.90;;;;;;5019539;28;20459;-66
2023/01/22 06:42:41;;;;;;;10.50;6.53;;;0.50;99.90;;;;;;5026680;28;20485;-66
2023/01/22 06:45:09;;;;;;;7.90;6.00;;;0.50;99.90;;;;;;5024124;28;20463;-66
2023/01/22 06:47:35;;;;;;;8.33;5.97;;;0.60;99.90;;;;;;5017678;28;20867;-65
2023/01/22 06:50:02;;;;;;;7.60;6.57;;;0.50;99.90;;;;;;5017984;28;21005;-66
2023/01/22 06:52:29;;;;;;;8.70;6.63;;;0.50;99.90;;;;;;5019953;28;21048;-68
2023/01/22 06:54:57;;;;;;;8.63;6.80;;;0.50;99.90;;;;;;5025501;28;20505;-67
2023/01/22 06:57:23;;;;;;;7.93;6.40;;;0.50;99.90;;;;;;5022327;28;20954;-67
2023/01/22 06:59:50;;;;;;;8.83;7.03;;;0.60;99.90;;;;;;5019564;28;20513;-68
2023/01/22 07:02:18;;;;;;;10.37;7.00;;;0.50;99.90;;;;;;5014505;28;20615;-67
2023/01/22 07:04:45;;;;;;;9.90;7.20;;;0.60;99.90;;;;;;5025729;28;20450;-67
2023/01/22 07:07:12;;;;;;;9.33;6.53;;;0.60;99.90;;;;;;5024986;28;20496;-67
2023/01/22 07:09:38;;;;;;;11.43;7.97;;;0.60;99.90;;;;;;5021709;28;20550;-67
2023/01/22 07:12:07;;;;;;;9.83;7.07;;;0.60;99.90;;;;;;5015569;28;21069;-67
2023/01/22 07:14:34;;;;;;;12.80;8.10;;;0.60;99.90;;;;;;5012831;28;20463;-67
2023/01/22 07:17:00;;;;;;;9.10;6.90;;;0.60;99.90;;;;;;5030170;28;20531;-67
2023/01/22 07:19:27;;;;;;;9.30;6.70;;;0.60;99.90;;;;;;5028697;28;20516;-67
2023/01/22 07:21:53;;;;;;;10.73;6.90;;;0.60;99.90;;;;;;5024497;28;20985;-67
2023/01/22 07:24:20;;;;;;;8.40;6.70;;;0.70;99.90;;;;;;5018792;28;20490;-67
2023/01/22 07:26:48;;;;;;;13.93;7.57;;;0.70;99.90;;;;;;5023878;28;20454;-67
2023/01/22 07:29:16;;;;;;;9.87;7.70;;;0.70;99.90;;;;;;5028820;28;20508;-67
2023/01/22 07:31:43;;;;;;;13.93;7.40;;;0.70;99.90;;;;;;5028731;28;20916;-67
2023/01/22 07:34:09;;;;;;;8.50;6.90;;;0.70;99.90;;;;;;5020385;28;20517;-67
2023/01/22 07:36:36;;;;;;;9.53;7.20;;;0.80;99.90;;;;;;5017830;28;20465;-67
2023/01/22 07:39:04;;;;;;;12.83;6.90;;;0.80;99.90;;;;;;5024979;28;20959;-67
2023/01/22 07:41:31;;;;;;;11.57;7.50;;;0.80;99.90;;;;;;5026753;28;20568;-68
2023/01/22 07:43:59;;;;;;;8.60;6.47;;;0.80;99.90;;;;;;5025329;28;20491;-67
2023/01/22 07:46:27;;;;;;;8.00;6.40;;;0.80;99.90;;;;;;5021870;28;20474;-67
2023/01/22 07:48:54;;;;;;;11.33;6.77;;;0.70;99.90;;;;;;5024809;28;20507;-67
2023/01/22 07:51:21;;;;;;;12.20;7.93;;;0.80;99.90;;;;;;5031843;28;20504;-67
2023/01/22 07:53:47;;;;;;;9.10;7.10;;;0.80;99.90;;;;;;5025056;28;20450;-67
2023/01/22 07:56:14;;;;;;;12.00;6.77;;;0.80;99.90;;;;;;5022141;28;20451;-67
2023/01/22 07:58:41;;;;;;;9.53;6.10;;;0.80;99.90;;;;;;5026574;28;20454;-68
2023/01/22 08:01:09;;;;;;;8.77;6.90;;;0.80;99.90;;;;;;5020293;28;20529;-68
2023/01/22 08:03:38;;;;;;;8.83;6.30;;;0.80;99.90;;;;;;5030011;28;20572;-67
2023/01/22 08:06:08;;;;;;;13.93;6.20;;;0.80;99.90;;;;;;5025586;28;20950;-67
2023/01/22 08:08:35;;;;;;;9.73;6.67;;;0.80;99.90;;;;;;5027284;28;20446;-68
2023/01/22 08:11:02;;;;;;;7.43;5.97;;;0.90;99.90;;;;;;5017462;28;21056;-68
2023/01/22 08:13:28;;;;;;;9.73;6.23;;;0.90;99.90;;;;;;5022895;28;20523;-67
2023/01/22 08:15:55;;;;;;;7.40;5.93;;;1.00;99.90;;;;;;5028463;28;20451;-68
2023/01/22 08:18:22;;;;;;;8.07;6.30;;;1.00;99.90;;;;;;5029588;28;20454;-68
2023/01/22 08:20:50;;;;;;;10.03;6.70;;;1.00;99.90;;;;;;5019606;28;21017;-67
2023/01/22 08:23:17;;;;;;;8.20;6.57;;;1.00;99.90;;;;;;5025109;28;20535;-68
2023/01/22 08:25:43;;;;;;;6.30;5.70;;;1.10;99.90;;;;;;5022278;28;20519;-67
2023/01/22 08:28:10;;;;;;;7.30;6.00;;;1.10;99.90;;;;;;5026665;28;20484;-68
2023/01/22 08:30:36;;;;;;;7.17;6.37;;;1.20;99.90;;;;;;5027524;28;20568;-68
2023/01/22 08:33:03;;;;;;;6.97;6.17;;;1.20;99.90;;;;;;5022711;28;20950;-67
2023/01/22 08:35:30;;;;;;;7.40;6.13;;;1.20;99.90;;;;;;5024635;28;20454;-67
2023/01/22 08:38:00;;;;;;;9.70;5.83;;;1.20;99.90;;;;;;5024220;28;20484;-69
2023/01/22 08:40:27;;;;;;;10.67;7.10;;;1.20;99.90;;;;;;5025670;28;20493;-67
2023/01/22 08:42:55;;;;;;;7.80;5.90;;;1.30;99.90;;;;;;5020578;28;20509;-67
2023/01/22 08:45:22;;;;;;;7.93;6.00;;;1.30;99.90;;;;;;5025534;28;20449;-68
2023/01/22 08:47:50;;;;;;;6.47;5.83;;;1.30;99.90;;;;;;5021882;28;20466;-68
2023/01/22 08:50:17;;;;;;;5.90;5.37;;;1.40;99.90;;;;;;5025113;28;20962;-67
2023/01/22 08:52:44;;;;;;;8.23;5.77;;;1.40;99.90;;;;;;5025118;28;20834;-67
2023/01/22 08:55:12;;;;;;;6.67;5.87;;;1.50;99.90;;;;;;5021338;28;20455;-68
2023/01/22 08:57:38;;;;;;;7.10;5.40;;;1.50;99.90;;;;;;5018434;28;20493;-67
2023/01/22 09:00:07;;;;;;;8.73;6.63;;;1.60;99.90;;;;;;5018331;28;20449;-68
2023/01/22 09:02:34;;;;;;;6.90;6.00;;;1.60;99.90;;;;;;5028827;28;20474;-68
2023/01/22 09:05:00;;;;;;;9.00;6.60;;;1.70;99.90;;;;;;5024277;28;20508;-67
2023/01/22 09:07:27;;;;;;;9.33;6.27;;;1.70;99.90;;;;;;5027151;28;20465;-67
2023/01/22 09:09:54;;;;;;;8.33;5.80;;;1.80;99.90;;;;;;5017164;28;20959;-67
2023/01/22 09:12:22;;;;;;;9.17;6.13;;;1.80;99.90;;;;;;5020007;28;20524;-68
2023/01/22 09:14:48;;;;;;;7.67;6.13;;;1.80;99.90;;;;;;5026286;28;21164;-67
2023/01/22 09:17:16;;;;;;;10.63;5.83;;;1.90;99.90;;;;;;5029665;28;20511;-68
2023/01/22 09:19:43;;;;;;;7.20;6.40;;;2.00;99.90;;;;;;5023047;28;20474;-68
2023/01/22 09:22:09;;;;;;;7.13;6.23;;;1.90;99.90;;;;;;5018724;28;20478;-67
2023/01/22 09:24:36;;;;;;;6.90;5.43;;;1.90;99.90;;;;;;5017395;28;20544;-68
2023/01/22 09:27:02;;;;;;;6.60;5.57;;;1.90;99.90;;;;;;5018204;28;20458;-68
2023/01/22 09:29:30;;;;;;;7.37;5.70;;;1.80;99.90;;;;;;5028168;28;20469;-67
2023/01/22 09:31:57;;;;;;;5.97;5.40;;;1.80;99.90;;;;;;5027103;28;20478;-68
2023/01/22 09:34:24;;;;;;;5.40;4.90;;;1.90;99.90;;;;;;5021452;28;20492;-68
2023/01/22 09:36:50;;;;;;;5.50;5.00;;;1.90;99.90;;;;;;5023221;28;20466;-68
2023/01/22 09:39:17;;;;;;;7.07;4.90;;;1.90;99.90;;;;;;5028786;28;20454;-68
2023/01/22 09:41:48;;;;;;;5.83;5.23;;;2.00;99.90;;;;;;5026944;28;20470;-68
2023/01/22 09:44:20;;;;;;;7.07;5.17;;;1.90;99.90;;;;;;5026111;28;20486;-68
2023/01/22 09:46:52;;;;;;;6.43;4.87;;;2.00;99.90;;;;;;5021469;28;20836;-68
2023/01/22 09:49:21;;;;;;;6.50;5.90;;;2.10;99.90;;;;;;5021287;28;20490;-68
2023/01/22 09:51:53;;;;;;;5.40;4.90;;;2.10;99.90;;;;;;5027196;28;20473;-67
2023/01/22 09:54:20;;;;;;;6.60;4.80;;;2.20;99.90;;;;;;5024235;28;20964;-67
2023/01/22 09:56:49;;;;;;;4.77;4.37;;;2.10;99.90;;;;;;5020440;28;20492;-69
2023/01/22 09:59:18;;;;;;;4.80;4.40;;;2.20;99.90;;;;;;5015218;28;20544;-68
2023/01/22 10:01:50;;;;;;;6.07;4.20;;;2.20;99.90;;;;;;5027813;28;20508;-68
2023/01/22 10:04:36;;;;;;;4.30;3.90;;;2.20;99.90;;;;;;5027296;28;20904;-69
2023/01/22 10:07:07;;;;;;;4.33;3.93;;;2.10;99.90;;;;;;5019832;28;20596;-68
2023/01/22 10:09:38;;;;;;;4.57;4.17;;;2.20;99.90;;;;;;5015035;28;20455;-68
2023/01/22 10:12:12;;;;;;;4.23;3.83;;;2.20;99.90;;;;;;5015942;28;20485;-68
2023/01/22 10:14:40;;;;;;;5.17;4.67;;;2.20;99.90;;;;;;5027436;28;20995;-67
2023/01/22 10:17:19;;;;;;;3.90;3.60;;;2.20;99.90;;;;;;5026334;28;20495;-68
2023/01/22 10:19:50;;;;;;;6.47;4.23;;;2.20;99.90;;;;;;5019734;28;20457;-68
2023/01/22 10:22:21;;;;;;;5.00;3.33;;;2.30;99.90;;;;;;5017866;28;20465;-68
2023/01/22 10:24:47;;;;;;;4.00;3.70;;;2.30;99.90;;;;;;5028505;28;20567;-67
2023/01/22 10:27:18;;;;;;;4.80;4.40;;;2.30;99.90;;;;;;5023966;28;20519;-68
2023/01/22 10:29:55;;;;;;;3.80;3.50;;;2.20;99.90;;;;;;5021542;28;20454;-67
2023/01/22 10:32:25;;;;;;;3.50;3.30;;;2.20;99.90;;;;;;5026660;28;20529;-68
2023/01/22 10:35:00;;;;;;;4.00;3.60;;;2.20;99.90;;;;;;5027151;28;20946;-68
2023/01/22 10:37:28;;;;;;;4.07;3.67;;;2.20;99.90;;;;;;5025697;28;20507;-67
2023/01/22 10:39:58;;;;;;;4.00;3.70;;;2.20;99.90;;;;;;5025306;28;20465;-68
2023/01/22 10:42:27;;;;;;;3.60;3.30;;;2.30;99.90;;;;;;5028605;28;20478;-76
2023/01/22 10:44:56;;;;;;;4.20;3.87;;;2.20;99.90;;;;;;5025958;28;20936;-76
2023/01/22 10:47:27;;;;;;;4.20;3.90;;;2.20;99.90;;;;;;5025859;28;20454;-76
2023/01/22 10:50:04;;;;;;;3.93;3.63;;;2.20;99.90;;;;;;5024708;28;20554;-75
2023/01/22 10:52:38;;;;;;;3.90;3.70;;;2.20;99.90;;;;;;5032419;28;20481;-74
2023/01/22 10:55:06;;;;;;;3.90;3.43;;;2.20;99.90;;;;;;5032036;28;20449;-72
2023/01/22 10:57:36;;;;;;;4.00;3.70;;;2.20;99.90;;;;;;5035597;28;20468;-72
2023/01/22 11:00:20;;;;;;;3.67;3.37;;;2.20;99.90;;;;;;5036663;28;20449;-68
2023/01/22 11:02:49;;;;;;;4.20;3.90;;;2.20;99.90;;;;;;5034492;28;20977;-67
2023/01/22 11:05:18;;;;;;;5.03;3.87;;;2.20;99.90;;;;;;5034267;28;21070;-68
2023/01/22 11:07:46;;;;;;;4.50;4.10;;;2.20;99.90;;;;;;5031835;28;20512;-68
2023/01/22 11:10:19;;;;;;;4.30;4.00;;;2.30;99.90;;;;;;5030167;28;20813;-68
2023/01/22 11:12:50;;;;;;;5.70;4.57;;;2.30;99.90;;;;;;5033402;28;20887;-68
2023/01/22 11:15:21;;;;;;;5.27;4.07;;;2.30;99.90;;;;;;5033866;28;20450;-68
2023/01/22 11:17:52;;;;;;;4.83;4.27;;;2.40;99.90;;;;;;5033505;28;20453;-68
2023/01/22 11:20:23;;;;;;;4.10;3.73;;;2.40;99.90;;;;;;5036656;28;20460;-68
2023/01/22 11:23:05;;;;;;;3.93;3.67;;;2.40;99.90;;;;;;5031809;28;20450;-72
2023/01/22 11:25:40;;;;;;;3.80;3.50;;;2.40;99.90;;;;;;5027453;28;20960;-72
2023/01/22 11:28:27;;;;;;;3.83;3.63;;;2.40;99.90;;;;;;5029823;28;20511;-72
2023/01/22 11:31:08;;;;;;;4.20;3.80;;;2.40;99.90;;;;;;5036454;28;20547;-72
2023/01/22 11:34:01;;;;;;;4.53;4.07;;;2.30;99.90;;;;;;5035411;28;20453;-72
2023/01/22 11:36:36;;;;;;;4.07;3.77;;;2.30;99.90;;;;;;5031081;28;20454;-72
2023/01/22 11:39:13;;;;;;;3.80;3.50;;;2.30;99.90;;;;;;5033447;28;20996;-72
2023/01/22 11:41:54;;;;;;;3.90;3.60;;;2.30;99.90;;;;;;5028131;28;20934;-72
2023/01/22 11:44:32;;;;;;;4.07;3.77;;;2.40;99.90;;;;;;5028889;28;20487;-73
2023/01/22 11:47:19;;;;;;;3.83;3.53;;;2.40;99.90;;;;;;5031325;28;20878;-73
2023/01/22 11:49:59;;;;;;;3.57;3.30;;;2.40;99.90;;;;;;5036915;28;20453;-72
2023/01/22 11:52:40;;;;;;;6.17;4.50;;;2.40;99.90;;;;;;5036949;28;21034;-71
2023/01/22 11:55:30;;;;;;;4.67;4.17;;;2.40;99.90;;;;;;5036640;28;20446;-67
2023/01/22 11:58:07;;;;;;;5.20;4.50;;;2.40;99.90;;;;;;5036265;28;20465;-67
2023/01/22 12:00:44;;;;;;;4.63;4.10;;;2.40;99.90;;;;;;5034532;28;20453;-67
2023/01/22 12:03:28;;;;;;;5.83;4.23;;;2.40;99.90;;;;;;5027195;28;20469;-68
2023/01/22 12:06:11;;;;;;;4.93;4.53;;;2.30;99.90;;;;;;5032196;28;20493;-69
2023/01/22 12:08:49;;;;;;;5.60;4.60;;;2.30;99.90;;;;;;5025632;28;20512;-68
2023/01/22 12:11:39;;;;;;;4.20;3.90;;;2.30;99.90;;;;;;5033817;28;20469;-66
2023/01/22 12:14:33;;;;;;;4.60;4.27;;;2.30;99.90;;;;;;5032049;28;20446;-67
2023/01/22 12:17:11;;;;;;;5.60;5.10;;;2.30;99.90;;;;;;5033243;28;20507;-67
2023/01/22 12:19:52;;;;;;;5.40;4.90;;;2.40;99.90;;;;;;5033140;28;20531;-67
2023/01/22 12:22:28;;;;;;;5.90;5.30;;;2.40;99.90;;;;;;5033616;28;20516;-67
2023/01/22 12:25:03;;;;;;;6.37;5.77;;;2.40;99.90;;;;;;5033369;28;20493;-68
2023/01/22 12:27:34;;;;;;;4.90;4.30;;;2.40;99.90;;;;;;5033000;28;20460;-68
2023/01/22 12:30:13;;;;;;;5.30;4.87;;;2.40;99.90;;;;;;5031814;28;20880;-67
2023/01/22 12:32:42;;;;;;;6.80;4.73;;;2.30;99.90;;;;;;5032047;28;20527;-70
2023/01/22 12:35:15;;;;;;;6.77;5.10;;;2.30;99.90;;;;;;5032585;28;20454;-69
2023/01/22 12:37:46;;;;;;;5.00;4.50;;;2.30;99.90;;;;;;5032295;28;20450;-71
2023/01/22 12:40:31;;;;;;;4.90;4.50;;;2.30;99.90;;;;;;5032995;28;20863;-70
2023/01/22 12:43:01;;;;;;;4.60;4.20;;;2.30;99.90;;;;;;5025097;28;20454;-68
2023/01/22 12:45:37;;;;;;;5.97;4.30;;;2.30;99.90;;;;;;5028808;28;20489;-68
2023/01/22 12:48:16;;;;;;;4.73;4.33;;;2.30;99.90;;;;;;5024538;28;20870;-69
2023/01/22 12:50:49;;;;;;;4.77;4.30;;;2.20;99.90;;;;;;5024553;28;20473;-67
2023/01/22 12:53:25;;;;;;;4.60;4.20;;;2.20;99.90;;;;;;5028991;28;20794;-68
2023/01/22 12:56:03;;;;;;;4.53;4.13;;;2.20;99.90;;;;;;5029382;28;20507;-68
2023/01/22 12:58:32;;;;;;;5.70;4.73;;;2.20;99.90;;;;;;5029518;28;20454;-67
2023/01/22 13:01:04;;;;;;;4.50;4.10;;;2.20;99.90;;;;;;5029070;28;20481;-68
2023/01/22 13:03:31;;;;;;;5.73;4.30;;;2.30;99.90;;;;;;5028893;28;20504;-68
2023/01/22 13:05:59;;;;;;;5.17;4.70;;;2.30;99.90;;;;;;5028537;28;20539;-68
2023/01/22 13:08:36;;;;;;;7.40;4.00;;;2.40;99.90;;;;;;5029080;28;20958;-66
2023/01/22 13:11:05;;;;;;;4.77;4.30;;;2.30;99.90;;;;;;5028803;28;20836;-67